sensor_id;sensor_type;location;lat;lon;timestamp;temperature;humidity
8400;DHT22;4237;47.030;15.396;2023-02-08T00:01:35;-7.60;99.90
8400;DHT22;4237;47.030;15.396;2023-02-08T00:04:04;-7.70;99.90
8400;DHT22;4237;47.030;15.396;2023-02-08T00:06:32;-7.70;99.90
8400;DHT22;4237;47.030;15.396;2023-02-08T00:09:01;-7.80;99.90
8400;DHT22;4237;47.030;15.396;2023-02-08T00:11:30;-7.80;99.90
8400;DHT22;4237;47.030;15.396;2023-02-08T00:13:59;-7.80;99.90
8400;DHT22;4237;47.030;15.396;2023-02-08T00:16:27;-7.80;99.90
8400;DHT22;4237;47.030;15.396;2023-02-08T00:18:56;-7.70;99.90
8400;DHT22;4237;47.030;15.396;2023-02-08T00:21:26;-7.70;99.90
8400;DHT22;4237;47.030;15.396;2023-02-08T00:23:54;-7.80;99.90
8400;DHT22;4237;47.030;15.396;2023-02-08T00:26:24;-7.90;99.90
8400;DHT22;4237;47.030;15.396;2023-02-08T00:28:52;-7.90;99.90
8400;DHT22;4237;47.030;15.396;2023-02-08T00:31:21;-7.90;99.90
8400;DHT22;4237;47.030;15.396;2023-02-08T00:33:49;-8.00;99.90
8400;DHT22;4237;47.030;15.396;2023-02-08T00:36:18;-7.90;99.90
8400;DHT22;4237;47.030;15.396;2023-02-08T00:38:47;-8.00;99.90
8400;DHT22;4237;47.030;15.396;2023-02-08T00:41:15;-8.00;99.90
8400;DHT22;4237;47.030;15.396;2023-02-08T00:43:44;-8.00;99.90
8400;DHT22;4237;47.030;15.396;2023-02-08T00:46:13;-8.00;99.90
8400;DHT22;4237;47.030;15.396;2023-02-08T00:48:42;-8.10;99.90
8400;DHT22;4237;47.030;15.396;2023-02-08T00:51:12;-8.00;99.90
8400;DHT22;4237;47.030;15.396;2023-02-08T00:53:43;-8.00;99.90
8400;DHT22;4237;47.030;15.396;2023-02-08T00:56:14;-8.10;99.90
8400;DHT22;4237;47.030;15.396;2023-02-08T00:58:43;-8.10;99.90
8400;DHT22;4237;47.030;15.396;2023-02-08T01:01:12;-8.20;99.90
8400;DHT22;4237;47.030;15.396;2023-02-08T01:03:41;-8.20;99.90
8400;DHT22;4237;47.030;15.396;2023-02-08T01:06:15;-8.20;99.90
8400;DHT22;4237;47.030;15.396;2023-02-08T01:08:44;-8.20;99.90
8400;DHT22;4237;47.030;15.396;2023-02-08T01:11:18;-8.20;99.90
8400;DHT22;4237;47.030;15.396;2023-02-08T01:13:49;-8.30;99.90
8400;DHT22;4237;47.030;15.396;2023-02-08T01:16:20;-8.20;99.90
8400;DHT22;4237;47.030;15.396;2023-02-08T01:18:51;-8.20;99.90
8400;DHT22;4237;47.030;15.396;2023-02-08T01:21:23;-8.20;99.90
8400;DHT22;4237;47.030;15.396;2023-02-08T01:23:53;-8.20;99.90
8400;DHT22;4237;47.030;15.396;2023-02-08T01:26:23;-8.30;99.90
8400;DHT22;4237;47.030;15.396;2023-02-08T01:28:53;-8.30;99.90
8400;DHT22;4237;47.030;15.396;2023-02-08T01:31:29;-8.40;99.90
8400;DHT22;4237;47.030;15.396;2023-02-08T01:33:56;-8.40;99.90
8400;DHT22;4237;47.030;15.396;2023-02-08T01:36:26;-8.40;99.90
8400;DHT22;4237;47.030;15.396;2023-02-08T01:38:55;-8.50;99.90
8400;DHT22;4237;47.030;15.396;2023-02-08T01:41:27;-8.50;99.90
8400;DHT22;4237;47.030;15.396;2023-02-08T01:46:46;-8.50;99.90
8400;DHT22;4237;47.030;15.396;2023-02-08T01:49:28;-8.50;99.90
8400;DHT22;4237;47.030;15.396;2023-02-08T01:52:00;-8.60;99.90
8400;DHT22;4237;47.030;15.396;2023-02-08T01:54:38;-8.60;99.90
8400;DHT22;4237;47.030;15.396;2023-02-08T01:57:07;-8.60;99.90
8400;DHT22;4237;47.030;15.396;2023-02-08T01:59:41;-8.70;99.90
8400;DHT22;4237;47.030;15.396;2023-02-08T02:02:12;-8.70;99.90
8400;DHT22;4237;47.030;15.396;2023-02-08T02:04:42;-8.70;99.90
8400;DHT22;4237;47.030;15.396;2023-02-08T02:07:13;-8.70;99.90
8400;DHT22;4237;47.030;15.396;2023-02-08T02:09:55;-8.80;99.90
8400;DHT22;4237;47.030;15.396;2023-02-08T02:12:23;-8.80;99.90
8400;DHT22;4237;47.030;15.396;2023-02-08T02:14:53;-8.80;99.90
8400;DHT22;4237;47.030;15.396;2023-02-08T02:17:22;-8.80;99.90
8400;DHT22;4237;47.030;15.396;2023-02-08T02:19:58;-8.80;99.90
8400;DHT22;4237;47.030;15.396;2023-02-08T02:42:06;-8.80;99.90
8400;DHT22;4237;47.030;15.396;2023-02-08T02:45:18;-8.80;99.90
8400;DHT22;4237;47.030;15.396;2023-02-08T02:47:50;-8.90;99.90
8400;DHT22;4237;47.030;15.396;2023-02-08T02:50:34;-8.90;99.90
8400;DHT22;4237;47.030;15.396;2023-02-08T02:53:11;-8.90;99.90
8400;DHT22;4237;47.030;15.396;2023-02-08T02:55:44;-8.90;99.90
8400;DHT22;4237;47.030;15.396;2023-02-08T02:58:15;-8.80;99.90
8400;DHT22;4237;47.030;15.396;2023-02-08T03:00:53;-8.90;99.90
8400;DHT22;4237;47.030;15.396;2023-02-08T03:03:25;-8.80;99.90
8400;DHT22;4237;47.030;15.396;2023-02-08T03:05:57;-8.70;99.90
8400;DHT22;4237;47.030;15.396;2023-02-08T03:11:22;-8.80;99.90
8400;DHT22;4237;47.030;15.396;2023-02-08T03:17:14;-8.90;99.90
8400;DHT22;4237;47.030;15.396;2023-02-08T03:19:38;-9.00;99.90
8400;DHT22;4237;47.030;15.396;2023-02-08T03:22:22;-9.10;99.90
8400;DHT22;4237;47.030;15.396;2023-02-08T03:25:00;-9.10;99.90
8400;DHT22;4237;47.030;15.396;2023-02-08T03:27:31;-9.10;99.90
8400;DHT22;4237;47.030;15.396;2023-02-08T03:35:30;-9.20;99.90
8400;DHT22;4237;47.030;15.396;2023-02-08T03:38:08;-9.20;99.90
8400;DHT22;4237;47.030;15.396;2023-02-08T03:40:36;-9.20;99.90
8400;DHT22;4237;47.030;15.396;2023-02-08T03:43:18;-9.20;99.90
8400;DHT22;4237;47.030;15.396;2023-02-08T03:45:49;-9.30;99.90
8400;DHT22;4237;47.030;15.396;2023-02-08T03:48:15;-9.20;99.90
8400;DHT22;4237;47.030;15.396;2023-02-08T03:50:47;-9.20;99.90
8400;DHT22;4237;47.030;15.396;2023-02-08T03:53:19;-9.10;99.90
8400;DHT22;4237;47.030;15.396;2023-02-08T03:55:51;-9.10;99.90
8400;DHT22;4237;47.030;15.396;2023-02-08T03:58:26;-9.10;99.90
8400;DHT22;4237;47.030;15.396;2023-02-08T04:01:06;-9.10;99.90
8400;DHT22;4237;47.030;15.396;2023-02-08T04:03:28;-9.10;99.90
8400;DHT22;4237;47.030;15.396;2023-02-08T04:05:58;-9.20;99.90
8400;DHT22;4237;47.030;15.396;2023-02-08T04:08:26;-9.30;99.90
8400;DHT22;4237;47.030;15.396;2023-02-08T04:10:55;-9.30;99.90
8400;DHT22;4237;47.030;15.396;2023-02-08T04:13:24;-9.30;99.90
8400;DHT22;4237;47.030;15.396;2023-02-08T04:16:12;-9.30;99.90
8400;DHT22;4237;47.030;15.396;2023-02-08T04:18:40;-9.30;99.90
8400;DHT22;4237;47.030;15.396;2023-02-08T04:21:09;-9.20;99.90
8400;DHT22;4237;47.030;15.396;2023-02-08T04:23:38;-9.30;99.90
8400;DHT22;4237;47.030;15.396;2023-02-08T04:26:06;-9.20;99.90
8400;DHT22;4237;47.030;15.396;2023-02-08T04:28:36;-9.10;99.90
8400;DHT22;4237;47.030;15.396;2023-02-08T04:31:05;-9.20;99.90
8400;DHT22;4237;47.030;15.396;2023-02-08T04:33:33;-9.30;99.90
8400;DHT22;4237;47.030;15.396;2023-02-08T04:36:02;-9.30;99.90
8400;DHT22;4237;47.030;15.396;2023-02-08T04:38:31;-9.20;99.90
8400;DHT22;4237;47.030;15.396;2023-02-08T04:40:59;-9.10;99.90
8400;DHT22;4237;47.030;15.396;2023-02-08T04:43:28;-9.10;99.90
8400;DHT22;4237;47.030;15.396;2023-02-08T04:45:57;-9.10;99.90
8400;DHT22;4237;47.030;15.396;2023-02-08T04:48:25;-9.10;99.90
8400;DHT22;4237;47.030;15.396;2023-02-08T04:50:56;-9.10;99.90
8400;DHT22;4237;47.030;15.396;2023-02-08T04:53:25;-9.00;99.90
8400;DHT22;4237;47.030;15.396;2023-02-08T04:55:54;-8.90;99.90
8400;DHT22;4237;47.030;15.396;2023-02-08T04:58:23;-8.90;99.90
8400;DHT22;4237;47.030;15.396;2023-02-08T05:00:51;-8.70;99.90
8400;DHT22;4237;47.030;15.396;2023-02-08T05:03:20;-8.70;99.90
8400;DHT22;4237;47.030;15.396;2023-02-08T05:05:57;-8.60;99.90
8400;DHT22;4237;47.030;15.396;2023-02-08T05:08:26;-8.60;99.90
8400;DHT22;4237;47.030;15.396;2023-02-08T05:10:54;-8.50;99.90
8400;DHT22;4237;47.030;15.396;2023-02-08T05:13:23;-8.40;99.90
8400;DHT22;4237;47.030;15.396;2023-02-08T05:15:52;-8.20;99.90
8400;DHT22;4237;47.030;15.396;2023-02-08T05:18:20;-8.10;99.90
8400;DHT22;4237;47.030;15.396;2023-02-08T05:20:57;-7.90;99.90
8400;DHT22;4237;47.030;15.396;2023-02-08T05:23:26;-7.70;99.90
8400;DHT22;4237;47.030;15.396;2023-02-08T05:25:55;-7.60;99.90
8400;DHT22;4237;47.030;15.396;2023-02-08T05:28:24;-7.50;99.90
8400;DHT22;4237;47.030;15.396;2023-02-08T05:30:53;-7.30;99.90
8400;DHT22;4237;47.030;15.396;2023-02-08T05:33:21;-7.20;99.90
8400;DHT22;4237;47.030;15.396;2023-02-08T05:35:50;-7.10;99.90
8400;DHT22;4237;47.030;15.396;2023-02-08T05:38:19;-7.00;99.90
8400;DHT22;4237;47.030;15.396;2023-02-08T05:40:47;-7.00;99.90
8400;DHT22;4237;47.030;15.396;2023-02-08T05:43:16;-6.90;99.90
8400;DHT22;4237;47.030;15.396;2023-02-08T05:45:44;-6.70;99.90
8400;DHT22;4237;47.030;15.396;2023-02-08T05:48:13;-6.70;99.90
8400;DHT22;4237;47.030;15.396;2023-02-08T05:50:41;-6.60;99.90
8400;DHT22;4237;47.030;15.396;2023-02-08T05:53:10;-6.40;99.90
8400;DHT22;4237;47.030;15.396;2023-02-08T05:55:39;-6.30;99.90
8400;DHT22;4237;47.030;15.396;2023-02-08T05:58:07;-6.20;99.90
8400;DHT22;4237;47.030;15.396;2023-02-08T06:00:36;-6.20;99.90
8400;DHT22;4237;47.030;15.396;2023-02-08T06:03:05;-6.20;99.90
8400;DHT22;4237;47.030;15.396;2023-02-08T06:05:35;-6.20;99.90
8400;DHT22;4237;47.030;15.396;2023-02-08T06:08:05;-6.20;99.90
8400;DHT22;4237;47.030;15.396;2023-02-08T06:10:34;-6.10;99.90
8400;DHT22;4237;47.030;15.396;2023-02-08T06:13:04;-6.10;99.90
8400;DHT22;4237;47.030;15.396;2023-02-08T06:15:32;-6.10;99.90
8400;DHT22;4237;47.030;15.396;2023-02-08T06:18:01;-6.00;99.90
8400;DHT22;4237;47.030;15.396;2023-02-08T06:20:29;-6.10;99.90
8400;DHT22;4237;47.030;15.396;2023-02-08T06:22:58;-6.00;99.90
8400;DHT22;4237;47.030;15.396;2023-02-08T06:25:27;-5.90;99.90
8400;DHT22;4237;47.030;15.396;2023-02-08T06:27:55;-5.90;99.90
8400;DHT22;4237;47.030;15.396;2023-02-08T06:30:24;-5.90;99.90
8400;DHT22;4237;47.030;15.396;2023-02-08T06:32:52;-5.80;99.90
8400;DHT22;4237;47.030;15.396;2023-02-08T06:35:21;-5.80;99.90
8400;DHT22;4237;47.030;15.396;2023-02-08T06:37:50;-5.80;99.90
8400;DHT22;4237;47.030;15.396;2023-02-08T06:40:18;-5.70;99.90
8400;DHT22;4237;47.030;15.396;2023-02-08T06:42:48;-5.70;99.90
8400;DHT22;4237;47.030;15.396;2023-02-08T06:45:17;-5.60;99.90
8400;DHT22;4237;47.030;15.396;2023-02-08T06:47:45;-5.60;99.90
8400;DHT22;4237;47.030;15.396;2023-02-08T06:50:14;-5.60;99.90
8400;DHT22;4237;47.030;15.396;2023-02-08T06:52:42;-5.50;99.90
8400;DHT22;4237;47.030;15.396;2023-02-08T06:55:11;-5.50;99.90
8400;DHT22;4237;47.030;15.396;2023-02-08T06:57:40;-5.50;99.90
8400;DHT22;4237;47.030;15.396;2023-02-08T07:00:09;-5.40;99.90
8400;DHT22;4237;47.030;15.396;2023-02-08T07:02:38;-5.40;99.90
8400;DHT22;4237;47.030;15.396;2023-02-08T07:05:07;-5.40;99.90
8400;DHT22;4237;47.030;15.396;2023-02-08T07:07:36;-5.30;99.90
8400;DHT22;4237;47.030;15.396;2023-02-08T07:10:05;-5.30;99.90
8400;DHT22;4237;47.030;15.396;2023-02-08T07:12:35;-5.20;99.90
8400;DHT22;4237;47.030;15.396;2023-02-08T07:15:04;-5.20;99.90
8400;DHT22;4237;47.030;15.396;2023-02-08T07:17:33;-5.20;99.90
8400;DHT22;4237;47.030;15.396;2023-02-08T07:20:02;-5.10;99.90
8400;DHT22;4237;47.030;15.396;2023-02-08T07:22:30;-5.00;99.90
8400;DHT22;4237;47.030;15.396;2023-02-08T07:24:59;-4.90;99.90
8400;DHT22;4237;47.030;15.396;2023-02-08T07:27:27;-4.90;99.90
8400;DHT22;4237;47.030;15.396;2023-02-08T07:29:56;-4.80;99.90
8400;DHT22;4237;47.030;15.396;2023-02-08T07:32:25;-4.70;99.90
8400;DHT22;4237;47.030;15.396;2023-02-08T07:34:53;-4.60;99.90
8400;DHT22;4237;47.030;15.396;2023-02-08T07:37:24;-4.50;99.90
8400;DHT22;4237;47.030;15.396;2023-02-08T07:39:52;-4.30;99.90
8400;DHT22;4237;47.030;15.396;2023-02-08T07:42:21;-4.20;99.90
8400;DHT22;4237;47.030;15.396;2023-02-08T07:44:50;-4.20;99.90
8400;DHT22;4237;47.030;15.396;2023-02-08T07:47:18;-4.00;99.90
8400;DHT22;4237;47.030;15.396;2023-02-08T07:49:47;-3.90;99.90
8400;DHT22;4237;47.030;15.396;2023-02-08T07:52:15;-3.50;99.90
8400;DHT22;4237;47.030;15.396;2023-02-08T07:54:44;-3.00;99.90
8400;DHT22;4237;47.030;15.396;2023-02-08T07:57:13;-3.00;99.90
8400;DHT22;4237;47.030;15.396;2023-02-08T07:59:43;-2.80;99.90
8400;DHT22;4237;47.030;15.396;2023-02-08T08:02:13;-2.70;99.90
8400;DHT22;4237;47.030;15.396;2023-02-08T08:04:42;-2.70;99.90
8400;DHT22;4237;47.030;15.396;2023-02-08T08:07:11;-2.60;99.90
8400;DHT22;4237;47.030;15.396;2023-02-08T08:09:40;-2.70;99.90
8400;DHT22;4237;47.030;15.396;2023-02-08T08:12:08;-2.40;99.90
8400;DHT22;4237;47.030;15.396;2023-02-08T08:14:37;-1.90;99.90
8400;DHT22;4237;47.030;15.396;2023-02-08T08:17:06;-1.10;99.90
8400;DHT22;4237;47.030;15.396;2023-02-08T08:19:34;-0.50;99.90
8400;DHT22;4237;47.030;15.396;2023-02-08T08:22:03;-0.40;99.90
8400;DHT22;4237;47.030;15.396;2023-02-08T08:24:32;0.20;99.90
8400;DHT22;4237;47.030;15.396;2023-02-08T08:27:03;-0.50;99.90
8400;DHT22;4237;47.030;15.396;2023-02-08T08:29:34;-0.30;99.90
8400;DHT22;4237;47.030;15.396;2023-02-08T08:32:03;0.10;99.90
8400;DHT22;4237;47.030;15.396;2023-02-08T08:34:32;0.60;99.90
8400;DHT22;4237;47.030;15.396;2023-02-08T08:37:01;1.40;99.90
8400;DHT22;4237;47.030;15.396;2023-02-08T08:39:30;1.50;99.90
8400;DHT22;4237;47.030;15.396;2023-02-08T08:41:59;1.50;99.90
8400;DHT22;4237;47.030;15.396;2023-02-08T08:44:30;0.90;99.90
8400;DHT22;4237;47.030;15.396;2023-02-08T08:47:00;-0.10;99.90
8400;DHT22;4237;47.030;15.396;2023-02-08T08:49:29;-0.60;99.90
8400;DHT22;4237;47.030;15.396;2023-02-08T08:51:57;-1.10;99.90
8400;DHT22;4237;47.030;15.396;2023-02-08T08:54:26;-1.20;99.90
8400;DHT22;4237;47.030;15.396;2023-02-08T08:56:54;-1.00;99.90
8400;DHT22;4237;47.030;15.396;2023-02-08T08:59:23;-1.00;99.90
8400;DHT22;4237;47.030;15.396;2023-02-08T09:01:52;1.20;99.90
8400;DHT22;4237;47.030;15.396;2023-02-08T09:04:20;4.40;99.90
8400;DHT22;4237;47.030;15.396;2023-02-08T09:06:55;6.90;99.90
8400;DHT22;4237;47.030;15.396;2023-02-08T09:09:20;6.40;99.90
8400;DHT22;4237;47.030;15.396;2023-02-08T09:11:49;7.10;99.90
8400;DHT22;4237;47.030;15.396;2023-02-08T09:14:18;6.30;99.90
8400;DHT22;4237;47.030;15.396;2023-02-08T09:16:47;4.60;99.90
8400;DHT22;4237;47.030;15.396;2023-02-08T09:19:16;3.20;99.90
8400;DHT22;4237;47.030;15.396;2023-02-08T09:21:45;3.40;99.90
8400;DHT22;4237;47.030;15.396;2023-02-08T09:24:14;3.60;99.90
8400;DHT22;4237;47.030;15.396;2023-02-08T09:26:43;4.10;99.90
8400;DHT22;4237;47.030;15.396;2023-02-08T09:29:12;3.90;99.90
8400;DHT22;4237;47.030;15.396;2023-02-08T09:31:41;4.80;99.90
8400;DHT22;4237;47.030;15.396;2023-02-08T09:34:10;4.20;99.90
8400;DHT22;4237;47.030;15.396;2023-02-08T09:36:39;3.70;99.90
8400;DHT22;4237;47.030;15.396;2023-02-08T09:39:11;4.20;99.90
8400;DHT22;4237;47.030;15.396;2023-02-08T09:44:41;3.40;99.90
8400;DHT22;4237;47.030;15.396;2023-02-08T09:49:58;2.10;99.90
8400;DHT22;4237;47.030;15.396;2023-02-08T09:57:42;3.00;99.90
8400;DHT22;4237;47.030;15.396;2023-02-08T10:00:20;2.90;99.90
8400;DHT22;4237;47.030;15.396;2023-02-08T10:02:50;2.20;99.90
8400;DHT22;4237;47.030;15.396;2023-02-08T10:05:21;3.20;99.90
8400;DHT22;4237;47.030;15.396;2023-02-08T10:07:52;3.60;99.90
8400;DHT22;4237;47.030;15.396;2023-02-08T10:10:32;2.80;99.90
8400;DHT22;4237;47.030;15.396;2023-02-08T10:15:55;5.30;99.90
8400;DHT22;4237;47.030;15.396;2023-02-08T10:18:28;5.30;99.90
8400;DHT22;4237;47.030;15.396;2023-02-08T10:23:47;5.40;99.90
8400;DHT22;4237;47.030;15.396;2023-02-08T10:29:11;5.80;99.90
8400;DHT22;4237;47.030;15.396;2023-02-08T10:36:48;6.00;99.90
8400;DHT22;4237;47.030;15.396;2023-02-08T10:39:28;5.90;99.90
8400;DHT22;4237;47.030;15.396;2023-02-08T10:41:57;5.60;99.90
8400;DHT22;4237;47.030;15.396;2023-02-08T10:47:19;5.00;99.90
8400;DHT22;4237;47.030;15.396;2023-02-08T10:50:06;4.50;99.90
8400;DHT22;4237;47.030;15.396;2023-02-08T10:52:34;3.90;99.90
8400;DHT22;4237;47.030;15.396;2023-02-08T10:55:10;3.70;99.90
8400;DHT22;4237;47.030;15.396;2023-02-08T10:57:35;3.60;99.90
8400;DHT22;4237;47.030;15.396;2023-02-08T11:00:05;3.90;99.90
8400;DHT22;4237;47.030;15.396;2023-02-08T11:02:43;3.70;99.90
8400;DHT22;4237;47.030;15.396;2023-02-08T11:05:11;3.40;99.90
8400;DHT22;4237;47.030;15.396;2023-02-08T11:07:39;3.00;99.90
8400;DHT22;4237;47.030;15.396;2023-02-08T11:10:21;2.80;99.90
8400;DHT22;4237;47.030;15.396;2023-02-08T11:13:05;3.00;99.90
8400;DHT22;4237;47.030;15.396;2023-02-08T11:15:38;3.10;99.90
8400;DHT22;4237;47.030;15.396;2023-02-08T11:18:19;3.40;99.90
8400;DHT22;4237;47.030;15.396;2023-02-08T11:20:54;3.40;99.90
8400;DHT22;4237;47.030;15.396;2023-02-08T11:23:30;3.50;99.90
8400;DHT22;4237;47.030;15.396;2023-02-08T11:26:31;3.30;99.90
8400;DHT22;4237;47.030;15.396;2023-02-08T11:31:34;3.30;99.90
8400;DHT22;4237;47.030;15.396;2023-02-08T11:34:06;3.20;99.90
8400;DHT22;4237;47.030;15.396;2023-02-08T11:36:44;2.60;99.90
8400;DHT22;4237;47.030;15.396;2023-02-08T11:39:22;2.20;99.90
8400;DHT22;4237;47.030;15.396;2023-02-08T11:41:53;2.20;99.90
8400;DHT22;4237;47.030;15.396;2023-02-08T11:44:43;2.80;99.90
8400;DHT22;4237;47.030;15.396;2023-02-08T11:46:59;3.20;99.90
8400;DHT22;4237;47.030;15.396;2023-02-08T11:49:37;3.30;99.90
8400;DHT22;4237;47.030;15.396;2023-02-08T11:52:55;3.10;99.90
8400;DHT22;4237;47.030;15.396;2023-02-08T11:54:40;2.40;99.90
8400;DHT22;4237;47.030;15.396;2023-02-08T11:57:18;2.90;99.90
8400;DHT22;4237;47.030;15.396;2023-02-08T11:59:48;3.40;99.90
8400;DHT22;4237;47.030;15.396;2023-02-08T12:02:29;3.50;99.90
8400;DHT22;4237;47.030;15.396;2023-02-08T12:04:59;3.60;99.90
8400;DHT22;4237;47.030;15.396;2023-02-08T12:10:13;3.70;99.90
8400;DHT22;4237;47.030;15.396;2023-02-08T12:18:22;2.90;99.90
8400;DHT22;4237;47.030;15.396;2023-02-08T12:21:37;3.50;99.90
8400;DHT22;4237;47.030;15.396;2023-02-08T12:23:47;3.90;99.90
8400;DHT22;4237;47.030;15.396;2023-02-08T12:35:19;3.20;99.90
8400;DHT22;4237;47.030;15.396;2023-02-08T12:37:53;3.60;99.90
8400;DHT22;4237;47.030;15.396;2023-02-08T12:43:49;4.10;99.90
8400;DHT22;4237;47.030;15.396;2023-02-08T12:46:32;4.00;99.50
8400;DHT22;4237;47.030;15.396;2023-02-08T12:49:09;3.50;99.90
8400;DHT22;4237;47.030;15.396;2023-02-08T12:52:10;3.60;99.90
8400;DHT22;4237;47.030;15.396;2023-02-08T12:57:27;3.40;99.90
8400;DHT22;4237;47.030;15.396;2023-02-08T13:00:05;3.60;99.90
8400;DHT22;4237;47.030;15.396;2023-02-08T13:02:47;4.00;99.90
8400;DHT22;4237;47.030;15.396;2023-02-08T13:05:21;4.00;99.90
8400;DHT22;4237;47.030;15.396;2023-02-08T13:08:02;4.20;99.90
8400;DHT22;4237;47.030;15.396;2023-02-08T13:10:35;4.00;99.90
8400;DHT22;4237;47.030;15.396;2023-02-08T13:13:17;4.30;99.90
8400;DHT22;4237;47.030;15.396;2023-02-08T13:16:02;4.50;99.90
8400;DHT22;4237;47.030;15.396;2023-02-08T13:18:39;4.20;99.70
8400;DHT22;4237;47.030;15.396;2023-02-08T13:21:15;3.90;99.90
8400;DHT22;4237;47.030;15.396;2023-02-08T13:23:46;4.30;99.90
8400;DHT22;4237;47.030;15.396;2023-02-08T13:26:18;4.70;99.70
8400;DHT22;4237;47.030;15.396;2023-02-08T13:28:54;5.30;99.20
8400;DHT22;4237;47.030;15.396;2023-02-08T13:36:52;8.30;96.00
8400;DHT22;4237;47.030;15.396;2023-02-08T13:41:58;10.70;83.40
8400;DHT22;4237;47.030;15.396;2023-02-08T13:44:33;10.20;82.00
8400;DHT22;4237;47.030;15.396;2023-02-08T13:47:03;9.70;85.50
8400;DHT22;4237;47.030;15.396;2023-02-08T13:49:53;9.40;87.80
8400;DHT22;4237;47.030;15.396;2023-02-08T14:03:33;7.40;89.50
8400;DHT22;4237;47.030;15.396;2023-02-08T14:14:30;7.00;92.20
8400;DHT22;4237;47.030;15.396;2023-02-08T14:20:00;6.20;92.20
8400;DHT22;4237;47.030;15.396;2023-02-08T14:22:46;6.90;92.60
8400;DHT22;4237;47.030;15.396;2023-02-08T14:25:22;6.20;93.00
8400;DHT22;4237;47.030;15.396;2023-02-08T14:27:56;6.70;93.30
8400;DHT22;4237;47.030;15.396;2023-02-08T14:30:30;6.20;92.70
8400;DHT22;4237;47.030;15.396;2023-02-08T14:35:36;5.00;96.10
8400;DHT22;4237;47.030;15.396;2023-02-08T14:40:54;3.80;98.10
8400;DHT22;4237;47.030;15.396;2023-02-08T14:43:34;3.60;99.30
8400;DHT22;4237;47.030;15.396;2023-02-08T14:49:14;4.30;99.90
8400;DHT22;4237;47.030;15.396;2023-02-08T14:51:49;6.10;97.80
8400;DHT22;4237;47.030;15.396;2023-02-08T14:54:23;6.90;95.40
8400;DHT22;4237;47.030;15.396;2023-02-08T14:56:56;7.30;93.90
8400;DHT22;4237;47.030;15.396;2023-02-08T14:59:25;7.60;93.20
8400;DHT22;4237;47.030;15.396;2023-02-08T15:02:00;8.10;92.60
8400;DHT22;4237;47.030;15.396;2023-02-08T15:04:29;9.00;91.20
8400;DHT22;4237;47.030;15.396;2023-02-08T15:09:42;8.50;90.20
8400;DHT22;4237;47.030;15.396;2023-02-08T15:12:28;7.10;92.30
8400;DHT22;4237;47.030;15.396;2023-02-08T15:14:59;6.20;94.70
8400;DHT22;4237;47.030;15.396;2023-02-08T15:17:45;5.80;95.80
8400;DHT22;4237;47.030;15.396;2023-02-08T15:20:29;5.60;97.10
8400;DHT22;4237;47.030;15.396;2023-02-08T15:23:03;5.00;96.80
8400;DHT22;4237;47.030;15.396;2023-02-08T15:25:34;4.90;97.20
8400;DHT22;4237;47.030;15.396;2023-02-08T15:30:44;3.20;99.90
8400;DHT22;4237;47.030;15.396;2023-02-08T15:33:15;2.40;99.90
8400;DHT22;4237;47.030;15.396;2023-02-08T15:36:04;1.80;99.90
8400;DHT22;4237;47.030;15.396;2023-02-08T15:38:34;1.20;99.90
8400;DHT22;4237;47.030;15.396;2023-02-08T15:41:11;0.80;99.90
8400;DHT22;4237;47.030;15.396;2023-02-08T15:43:41;0.50;99.90
8400;DHT22;4237;47.030;15.396;2023-02-08T15:46:24;0.20;99.90
8400;DHT22;4237;47.030;15.396;2023-02-08T15:48:54;-0.10;99.90
8400;DHT22;4237;47.030;15.396;2023-02-08T15:51:24;-0.20;99.90
8400;DHT22;4237;47.030;15.396;2023-02-08T15:53:55;-0.40;99.90
8400;DHT22;4237;47.030;15.396;2023-02-08T15:56:29;-0.60;99.90
8400;DHT22;4237;47.030;15.396;2023-02-08T15:58:59;-0.70;99.90
8400;DHT22;4237;47.030;15.396;2023-02-08T16:01:29;-0.80;99.90
8400;DHT22;4237;47.030;15.396;2023-02-08T16:04:01;-0.90;99.90
8400;DHT22;4237;47.030;15.396;2023-02-08T16:06:35;-0.80;99.90
8400;DHT22;4237;47.030;15.396;2023-02-08T16:09:03;-0.80;99.90
8400;DHT22;4237;47.030;15.396;2023-02-08T16:11:36;-0.80;99.90
8400;DHT22;4237;47.030;15.396;2023-02-08T16:14:05;-0.80;99.90
8400;DHT22;4237;47.030;15.396;2023-02-08T16:16:39;-0.80;99.90
8400;DHT22;4237;47.030;15.396;2023-02-08T16:19:26;-0.80;99.90
8400;DHT22;4237;47.030;15.396;2023-02-08T16:24:44;-0.80;99.90
8400;DHT22;4237;47.030;15.396;2023-02-08T16:27:25;-0.70;99.90
8400;DHT22;4237;47.030;15.396;2023-02-08T16:29:55;-0.80;99.90
8400;DHT22;4237;47.030;15.396;2023-02-08T16:32:29;-0.80;99.90
8400;DHT22;4237;47.030;15.396;2023-02-08T16:34:59;-0.90;99.90
8400;DHT22;4237;47.030;15.396;2023-02-08T16:37:31;-0.90;99.90
8400;DHT22;4237;47.030;15.396;2023-02-08T16:40:02;-0.90;99.90
8400;DHT22;4237;47.030;15.396;2023-02-08T16:42:37;-0.90;99.90
8400;DHT22;4237;47.030;15.396;2023-02-08T16:45:13;-0.90;99.90
8400;DHT22;4237;47.030;15.396;2023-02-08T16:47:53;-0.90;99.90
8400;DHT22;4237;47.030;15.396;2023-02-08T16:50:26;-0.90;99.90
8400;DHT22;4237;47.030;15.396;2023-02-08T16:53:01;-0.90;99.90
8400;DHT22;4237;47.030;15.396;2023-02-08T16:55:31;-0.90;99.90
8400;DHT22;4237;47.030;15.396;2023-02-08T16:58:01;-0.80;99.90
8400;DHT22;4237;47.030;15.396;2023-02-08T17:00:33;-0.80;99.90
8400;DHT22;4237;47.030;15.396;2023-02-08T17:03:02;-0.90;99.90
8400;DHT22;4237;47.030;15.396;2023-02-08T17:05:43;-0.90;99.90
8400;DHT22;4237;47.030;15.396;2023-02-08T17:08:16;-0.70;99.90
8400;DHT22;4237;47.030;15.396;2023-02-08T17:10:42;-0.50;99.90
8400;DHT22;4237;47.030;15.396;2023-02-08T17:13:11;-0.20;99.90
8400;DHT22;4237;47.030;15.396;2023-02-08T17:15:40;-0.30;99.90
8400;DHT22;4237;47.030;15.396;2023-02-08T17:18:10;-0.40;99.90
8400;DHT22;4237;47.030;15.396;2023-02-08T17:20:40;-0.50;99.90
8400;DHT22;4237;47.030;15.396;2023-02-08T17:23:09;-0.50;99.90
8400;DHT22;4237;47.030;15.396;2023-02-08T17:25:38;-0.60;99.90
8400;DHT22;4237;47.030;15.396;2023-02-08T17:28:14;-0.50;99.90
8400;DHT22;4237;47.030;15.396;2023-02-08T17:30:40;-0.70;99.90
8400;DHT22;4237;47.030;15.396;2023-02-08T17:33:11;-0.70;99.90
8400;DHT22;4237;47.030;15.396;2023-02-08T17:35:42;-0.80;99.90
8400;DHT22;4237;47.030;15.396;2023-02-08T17:38:11;-0.90;99.90
8400;DHT22;4237;47.030;15.396;2023-02-08T17:40:43;-0.90;99.90
8400;DHT22;4237;47.030;15.396;2023-02-08T17:43:12;-0.90;99.90
8400;DHT22;4237;47.030;15.396;2023-02-08T17:45:42;-0.90;99.90
8400;DHT22;4237;47.030;15.396;2023-02-08T17:48:12;-1.00;99.90
8400;DHT22;4237;47.030;15.396;2023-02-08T17:50:42;-1.00;99.90
8400;DHT22;4237;47.030;15.396;2023-02-08T17:53:13;-1.00;99.90
8400;DHT22;4237;47.030;15.396;2023-02-08T17:55:44;-1.00;99.90
8400;DHT22;4237;47.030;15.396;2023-02-08T17:58:15;-1.10;99.90
8400;DHT22;4237;47.030;15.396;2023-02-08T18:00:45;-1.10;99.90
8400;DHT22;4237;47.030;15.396;2023-02-08T18:03:13;-1.10;99.90
8400;DHT22;4237;47.030;15.396;2023-02-08T18:05:44;-1.10;99.90
8400;DHT22;4237;47.030;15.396;2023-02-08T18:08:15;-1.20;99.90
8400;DHT22;4237;47.030;15.396;2023-02-08T18:10:44;-1.10;99.90
8400;DHT22;4237;47.030;15.396;2023-02-08T18:13:14;-1.20;99.90
8400;DHT22;4237;47.030;15.396;2023-02-08T18:15:45;-1.20;99.90
8400;DHT22;4237;47.030;15.396;2023-02-08T18:18:15;-1.20;99.90
8400;DHT22;4237;47.030;15.396;2023-02-08T18:20:46;-1.20;99.90
8400;DHT22;4237;47.030;15.396;2023-02-08T18:23:14;-1.20;99.90
8400;DHT22;4237;47.030;15.396;2023-02-08T18:25:45;-1.20;99.90
8400;DHT22;4237;47.030;15.396;2023-02-08T18:28:15;-1.20;99.90
8400;DHT22;4237;47.030;15.396;2023-02-08T18:30:47;-1.20;99.90
8400;DHT22;4237;47.030;15.396;2023-02-08T18:33:16;-1.30;99.90